Time,TemperatureF,DewpointF,PressureIn,WindDirection,WindDirectionDegrees,WindSpeedMPH,WindSpeedGustMPH,Humidity,HourlyPrecipIn,Conditions,Clouds,dailyrainin,SolarRadiationWatts/m^2,SoftwareType,DateUTC
2013-01-09 00:00:00,40.5,38.6,30.23,ENE,60,0.0,0.0,93,0.00,,,0.00,0,Wunderground v.1.15,2013-01-09 05:00:00,
2013-01-09 00:05:00,40.5,38.6,30.23,ENE,60,0.0,0.0,93,0.00,,,0.00,0,Wunderground v.1.15,2013-01-09 05:05:00,
2013-01-09 00:15:00,40.2,38.3,30.23,ENE,60,0.0,0.0,93,0.00,,,0.00,0,Wunderground v.1.15,2013-01-09 05:15:00,
2013-01-09 00:25:00,40.2,38.3,30.23,ENE,60,0.0,0.0,93,0.00,,,0.00,0,Wunderground v.1.15,2013-01-09 05:25:00,
2013-01-09 00:30:00,39.7,37.6,30.37,North,-999,0.0,0.0,92,0.00,,,-99.99,,WeatherLink 5.9.2,2013-01-09 05:30:00,
2013-01-09 00:35:00,40.1,38.2,30.23,ENE,60,0.0,0.0,93,0.00,,,0.00,0,Wunderground v.1.15,2013-01-09 05:35:00,
2013-01-09 00:40:00,40.1,38.2,30.23,ENE,60,0.0,0.0,93,0.00,,,0.00,0,Wunderground v.1.15,2013-01-09 05:40:00,
2013-01-09 00:50:00,40.1,38.0,30.23,ENE,60,0.0,0.0,92,0.00,,,0.00,0,Wunderground v.1.15,2013-01-09 05:50:00,
2013-01-09 01:00:00,39.9,37.8,30.22,ENE,60,0.0,0.0,92,0.00,,,0.00,0,Wunderground v.1.15,2013-01-09 06:00:00,
2013-01-09 01:10:00,39.7,37.8,30.23,ENE,60,0.0,0.0,93,0.00,,,0.00,0,Wunderground v.1.15,2013-01-09 06:10:00,
2013-01-09 01:20:00,39.7,37.8,30.23,ENE,60,0.0,0.0,93,0.00,,,0.00,0,Wunderground v.1.15,2013-01-09 06:20:00,
2013-01-09 01:30:00,39.6,37.5,30.22,ENE,60,0.0,0.0,92,0.00,,,0.00,0,Wunderground v.1.15,2013-01-09 06:30:00,
2013-01-09 01:35:00,39.6,37.5,30.22,ENE,60,0.0,0.0,92,0.00,,,0.00,0,Wunderground v.1.15,2013-01-09 06:35:00,
2013-01-09 01:40:00,39.5,37.4,30.22,ENE,60,0.0,0.0,92,0.00,,,0.00,0,Wunderground v.1.15,2013-01-09 06:40:00,
2013-01-09 01:50:00,39.3,37.2,30.22,ENE,60,0.0,0.0,92,0.00,,,0.00,0,Wunderground v.1.15,2013-01-09 06:50:00,
2013-01-09 01:55:00,39.2,37.1,30.22,ENE,60,0.0,0.0,92,0.00,,,0.00,0,Wunderground v.1.15,2013-01-09 06:55:00,
2013-01-09 02:00:00,38.9,37.3,30.36,North,-999,0.0,0.0,94,0.00,,,-99.99,,WeatherLink 5.9.2,2013-01-09 07:00:00,
2013-01-09 02:05:00,39.1,37.2,30.22,ENE,60,0.0,0.0,93,0.00,,,0.00,0,Wunderground v.1.15,2013-01-09 07:05:00,
2013-01-09 02:10:00,39.0,37.1,30.22,ENE,60,0.0,0.0,93,0.00,,,0.00,0,Wunderground v.1.15,2013-01-09 07:10:00,
2013-01-09 02:20:00,39.0,37.4,30.22,ENE,60,0.0,0.0,94,0.00,,,0.00,0,Wunderground v.1.15,2013-01-09 07:20:00,
2013-01-09 02:30:00,38.9,37.3,30.22,ENE,60,0.0,0.0,94,0.00,,,0.00,0,Wunderground v.1.15,2013-01-09 07:30:00,
2013-01-09 02:40:00,38.8,37.2,30.21,ENE,60,0.0,0.0,94,0.00,,,0.00,0,Wunderground v.1.15,2013-01-09 07:40:00,
2013-01-09 02:50:00,38.8,37.2,30.22,ENE,60,0.0,0.0,94,0.00,,,0.00,0,Wunderground v.1.15,2013-01-09 07:50:00,
2013-01-09 03:00:00,38.9,37.3,30.22,ENE,60,0.0,0.0,94,0.00,,,0.00,0,Wunderground v.1.15,2013-01-09 08:00:00,
2013-01-09 03:10:00,38.8,37.2,30.22,ENE,60,0.0,0.0,94,0.00,,,0.00,0,Wunderground v.1.15,2013-01-09 08:10:00,
2013-01-09 03:15:00,38.8,37.2,30.22,ENE,60,0.0,0.0,94,0.00,,,0.00,0,Wunderground v.1.15,2013-01-09 08:15:00,
2013-01-09 03:25:00,38.7,37.1,30.22,ENE,60,0.0,0.0,94,0.00,,,0.00,0,Wunderground v.1.15,2013-01-09 08:25:00,
2013-01-09 03:30:00,38.7,37.1,30.22,ENE,60,0.0,0.0,94,0.00,,,0.00,0,Wunderground v.1.15,2013-01-09 08:30:00,
2013-01-09 03:40:00,38.9,37.3,30.22,ENE,60,0.0,0.0,94,0.00,,,0.00,0,Wunderground v.1.15,2013-01-09 08:40:00,
2013-01-09 03:50:00,39.5,38.2,30.21,ENE,60,0.0,0.0,95,0.00,,,0.00,0,Wunderground v.1.15,2013-01-09 08:50:00,
2013-01-09 03:55:00,39.7,38.4,30.21,ENE,60,0.0,0.0,95,0.00,,,0.00,0,Wunderground v.1.15,2013-01-09 08:55:00,
2013-01-09 04:00:00,42.6,41.8,30.38,North,-999,0.0,0.0,97,0.00,,,-99.99,,WeatherLink 5.9.2,2013-01-09 09:00:00,
2013-01-09 04:05:00,39.9,38.6,30.22,ENE,60,0.0,0.0,95,0.00,,,0.00,0,Wunderground v.1.15,2013-01-09 09:05:00,
2013-01-09 04:10:00,39.9,38.6,30.22,ENE,60,0.0,0.0,95,0.00,,,0.00,0,Wunderground v.1.15,2013-01-09 09:10:00,
2013-01-09 04:20:00,40.0,38.7,30.22,ENE,60,0.0,0.0,95,0.00,,,0.00,0,Wunderground v.1.15,2013-01-09 09:20:00,
2013-01-09 04:30:00,40.9,39.6,30.23,ENE,60,0.0,0.0,95,0.00,,,0.00,0,Wunderground v.1.15,2013-01-09 09:30:00,
2013-01-09 04:35:00,41.4,40.3,30.23,ENE,60,0.0,0.0,96,0.00,,,0.00,0,Wunderground v.1.15,2013-01-09 09:35:00,
2013-01-09 04:40:00,41.9,40.8,30.23,ENE,60,0.0,0.0,96,0.00,,,0.00,0,Wunderground v.1.15,2013-01-09 09:40:00,
2013-01-09 04:50:00,42.6,41.5,30.23,ENE,60,0.0,0.0,96,0.00,,,0.00,0,Wunderground v.1.15,2013-01-09 09:50:00,
2013-01-09 05:00:00,43.4,42.3,30.23,ENE,60,0.0,0.0,96,0.00,,,0.00,0,Wunderground v.1.15,2013-01-09 10:00:00,
2013-01-09 05:10:00,43.9,43.1,30.23,ENE,60,0.0,0.0,97,0.00,,,0.00,0,Wunderground v.1.15,2013-01-09 10:10:00,
2013-01-09 05:20:00,44.4,43.6,30.23,ENE,60,0.0,0.0,97,0.00,,,0.00,0,Wunderground v.1.15,2013-01-09 10:20:00,
2013-01-09 05:25:00,44.6,43.8,30.23,ENE,60,0.0,0.0,97,0.00,,,0.00,0,Wunderground v.1.15,2013-01-09 10:25:00,
2013-01-09 05:30:00,46.5,45.4,30.38,North,-999,0.0,0.0,96,0.00,,,-99.99,,WeatherLink 5.9.2,2013-01-09 10:30:00,
2013-01-09 05:35:00,45.1,44.0,30.23,ENE,60,0.0,0.0,96,0.00,,,0.00,0,Wunderground v.1.15,2013-01-09 10:35:00,
2013-01-09 05:40:00,45.3,44.2,30.22,ENE,60,0.0,0.0,96,0.00,,,0.00,0,Wunderground v.1.15,2013-01-09 10:40:00,
2013-01-09 05:45:00,45.4,44.3,30.22,ENE,60,0.0,0.0,96,0.00,,,0.00,0,Wunderground v.1.15,2013-01-09 10:45:00,
2013-01-09 05:55:00,45.8,44.7,30.22,ENE,60,0.0,0.0,96,0.00,,,0.00,0,Wunderground v.1.15,2013-01-09 10:55:00,
2013-01-09 06:00:00,46.0,44.9,30.23,ENE,60,0.0,0.0,96,0.00,,,0.00,0,Wunderground v.1.15,2013-01-09 11:00:00,
2013-01-09 06:10:00,46.2,45.1,30.23,ENE,60,0.0,0.0,96,0.00,,,0.00,0,Wunderground v.1.15,2013-01-09 11:10:00,
2013-01-09 06:20:00,46.4,45.3,30.23,ENE,60,0.0,0.0,96,0.00,,,0.00,0,Wunderground v.1.15,2013-01-09 11:20:00,
2013-01-09 06:25:00,46.6,45.5,30.24,ENE,60,0.0,0.0,96,0.00,,,0.00,0,Wunderground v.1.15,2013-01-09 11:25:00,
2013-01-09 06:30:00,48.0,46.9,30.41,North,-999,0.0,0.0,96,0.00,,,-99.99,,WeatherLink 5.9.2,2013-01-09 11:30:00,
2013-01-09 06:35:00,46.8,45.7,30.24,ENE,60,0.0,0.0,96,0.00,,,0.00,0,Wunderground v.1.15,2013-01-09 11:35:00,
2013-01-09 06:40:00,46.9,45.8,30.24,ENE,60,0.0,0.0,96,0.00,,,0.00,0,Wunderground v.1.15,2013-01-09 11:40:00,
2013-01-09 06:50:00,47.2,46.1,30.24,ENE,60,0.0,0.0,96,0.00,,,0.00,0,Wunderground v.1.15,2013-01-09 11:50:00,
2013-01-09 06:55:00,47.3,46.2,30.24,ENE,60,0.0,0.0,96,0.00,,,0.00,0,Wunderground v.1.15,2013-01-09 11:55:00,
2013-01-09 07:00:00,49.4,48.6,30.42,North,-999,0.0,0.0,97,0.00,,,-99.99,,WeatherLink 5.9.2,2013-01-09 12:00:00,
2013-01-09 07:05:00,47.5,46.4,30.25,ENE,60,0.0,0.0,96,0.00,,,0.00,0,Wunderground v.1.15,2013-01-09 12:05:00,
2013-01-09 07:10:00,47.5,46.4,30.25,ENE,60,0.0,0.0,96,0.00,,,0.00,0,Wunderground v.1.15,2013-01-09 12:10:00,
2013-01-09 07:15:00,47.8,46.7,30.25,ENE,60,0.0,0.0,96,0.00,,,0.00,0,Wunderground v.1.15,2013-01-09 12:15:00,
2013-01-09 07:25:00,48.3,47.2,30.26,ENE,60,0.0,0.0,96,0.00,,,0.00,0,Wunderground v.1.15,2013-01-09 12:25:00,
2013-01-09 07:30:00,50.8,50.0,30.43,North,-999,0.0,0.0,97,0.00,,,-99.99,,WeatherLink 5.9.2,2013-01-09 12:30:00,
2013-01-09 07:35:00,48.7,47.6,30.26,ENE,60,0.0,0.0,96,0.00,,,0.00,0,Wunderground v.1.15,2013-01-09 12:35:00,
2013-01-09 07:40:00,48.9,47.8,30.26,ENE,60,0.0,0.0,96,0.00,,,0.00,0,Wunderground v.1.15,2013-01-09 12:40:00,
2013-01-09 07:50:00,49.4,48.0,30.27,ENE,60,0.0,0.0,95,0.00,,,0.00,0,Wunderground v.1.15,2013-01-09 12:50:00,
2013-01-09 08:00:00,49.9,48.8,30.28,ENE,60,0.0,0.0,96,0.00,,,0.00,0,Wunderground v.1.15,2013-01-09 13:00:00,
2013-01-09 08:05:00,50.1,49.0,30.27,ENE,60,0.0,0.0,96,0.00,,,0.00,0,Wunderground v.1.15,2013-01-09 13:05:00,
2013-01-09 08:15:00,50.5,49.4,30.28,ENE,60,0.0,0.0,96,0.00,,,0.00,0,Wunderground v.1.15,2013-01-09 13:15:00,
2013-01-09 08:25:00,51.1,50.0,30.28,ENE,60,0.0,0.0,96,0.00,,,0.00,0,Wunderground v.1.15,2013-01-09 13:25:00,
2013-01-09 08:30:00,51.4,50.6,30.28,ENE,60,0.0,0.0,97,0.00,,,0.00,0,Wunderground v.1.15,2013-01-09 13:30:00,
2013-01-09 08:40:00,51.9,51.4,30.29,ENE,60,0.0,0.0,98,0.00,,,0.00,0,Wunderground v.1.15,2013-01-09 13:40:00,
2013-01-09 08:45:00,52.2,51.7,30.28,ENE,60,0.0,0.0,98,0.00,,,0.00,0,Wunderground v.1.15,2013-01-09 13:45:00,
2013-01-09 08:55:00,52.5,51.7,30.29,ENE,60,0.0,0.0,97,0.00,,,0.00,0,Wunderground v.1.15,2013-01-09 13:55:00,
2013-01-09 09:00:00,52.7,52.2,30.29,ENE,60,0.0,0.0,98,0.00,,,0.00,0,Wunderground v.1.15,2013-01-09 14:00:00,
2013-01-09 09:10:00,53.2,52.7,30.29,ENE,60,0.0,0.0,98,0.00,,,0.00,0,Wunderground v.1.15,2013-01-09 14:10:00,
2013-01-09 09:20:00,53.8,53.2,30.28,ENE,60,0.0,0.0,98,0.00,,,0.00,0,Wunderground v.1.15,2013-01-09 14:20:00,
2013-01-09 09:30:00,54.5,53.9,30.28,ENE,60,0.0,0.0,98,0.00,,,0.00,0,Wunderground v.1.15,2013-01-09 14:30:00,
2013-01-09 09:40:00,55.3,53.9,30.28,ENE,60,0.0,0.0,95,0.00,,,0.00,0,Wunderground v.1.15,2013-01-09 14:40:00,
2013-01-09 09:50:00,56.3,54.6,30.28,NNE,25,0.0,0.0,94,0.00,,,0.00,0,Wunderground v.1.15,2013-01-09 14:50:00,
2013-01-09 10:00:00,57.0,54.4,30.27,NNE,26,0.0,0.0,91,0.00,,,0.00,0,Wunderground v.1.15,2013-01-09 15:00:00,
2013-01-09 10:10:00,57.8,54.9,30.27,NNE,26,0.0,0.0,90,0.00,,,0.00,0,Wunderground v.1.15,2013-01-09 15:10:00,
2013-01-09 10:20:00,58.4,55.8,30.27,NNE,26,0.0,0.0,91,0.00,,,0.00,0,Wunderground v.1.15,2013-01-09 15:20:00,
2013-01-09 10:25:00,58.8,55.9,30.27,NNE,26,0.0,0.0,90,0.00,,,0.00,0,Wunderground v.1.15,2013-01-09 15:25:00,
2013-01-09 10:30:00,62.2,56.0,30.39,NE,45,0.0,3.0,80,0.00,,,-99.99,,WeatherLink 5.9.2,2013-01-09 15:30:00,
2013-01-09 10:35:00,59.5,55.3,30.27,NNE,26,0.0,0.0,86,0.00,,,0.00,0,Wunderground v.1.15,2013-01-09 15:35:00,
2013-01-09 10:40:00,60.0,54.8,30.26,NNE,30,0.0,0.0,83,0.00,,,0.00,0,Wunderground v.1.15,2013-01-09 15:40:00,
2013-01-09 10:50:00,61.0,55.1,30.26,NNE,30,0.0,0.0,81,0.00,,,0.00,0,Wunderground v.1.15,2013-01-09 15:50:00,
2013-01-09 11:00:00,64.6,56.5,30.38,ENE,67,0.0,3.0,75,0.00,,,-99.99,,WeatherLink 5.9.2,2013-01-09 16:00:00,
2013-01-09 11:05:00,62.0,56.4,30.26,NNE,30,0.0,0.0,82,0.00,,,0.00,0,Wunderground v.1.15,2013-01-09 16:05:00,
2013-01-09 11:10:00,62.0,56.4,30.25,NNE,30,0.0,0.0,82,0.00,,,0.00,0,Wunderground v.1.15,2013-01-09 16:10:00,
2013-01-09 11:15:00,62.1,56.2,30.25,NE,55,2.0,2.0,81,0.00,,,0.00,0,Wunderground v.1.15,2013-01-09 16:15:00,
2013-01-09 11:25:00,62.2,56.3,30.25,NE,54,0.0,0.0,81,0.00,,,0.00,0,Wunderground v.1.15,2013-01-09 16:25:00,
2013-01-09 11:30:00,66.1,56.8,30.36,East,90,1.0,4.0,72,0.00,,,-99.99,,WeatherLink 5.9.2,2013-01-09 16:30:00,
2013-01-09 11:35:00,62.7,56.4,30.24,NE,54,0.0,0.0,80,0.00,,,0.00,0,Wunderground v.1.15,2013-01-09 16:35:00,
2013-01-09 11:40:00,63.6,56.3,30.24,NE,54,0.0,0.0,77,0.00,,,0.00,0,Wunderground v.1.15,2013-01-09 16:40:00,
2013-01-09 11:50:00,64.7,57.3,30.24,ENE,57,2.0,2.0,77,0.00,,,0.00,0,Wunderground v.1.15,2013-01-09 16:50:00,
2013-01-09 11:55:00,65.2,57.1,30.23,ENE,57,0.0,2.0,75,0.00,,,0.00,0,Wunderground v.1.15,2013-01-09 16:55:00,
2013-01-09 12:00:00,67.0,55.7,30.36,ENE,67,0.0,3.0,67,0.00,,,-99.99,,WeatherLink 5.9.2,2013-01-09 17:00:00,
2013-01-09 12:05:00,65.5,57.0,30.23,ENE,71,0.0,0.0,74,0.00,,,0.00,0,Wunderground v.1.15,2013-01-09 17:05:00,
2013-01-09 12:10:00,65.5,57.4,30.22,ENE,73,0.0,0.0,75,0.00,,,0.00,0,Wunderground v.1.15,2013-01-09 17:10:00,
2013-01-09 12:20:00,66.2,57.3,30.23,ENE,71,2.0,2.0,73,0.00,,,0.00,0,Wunderground v.1.15,2013-01-09 17:20:00,
2013-01-09 12:30:00,66.7,57.4,30.22,East,87,1.0,1.0,72,0.00,,,0.00,0,Wunderground v.1.15,2013-01-09 17:30:00,
2013-01-09 12:35:00,66.7,57.4,30.22,ENE,68,0.0,1.0,72,0.00,,,0.00,0,Wunderground v.1.15,2013-01-09 17:35:00,
2013-01-09 12:45:00,66.7,57.4,30.21,ENE,69,0.0,0.0,72,0.00,,,0.00,0,Wunderground v.1.15,2013-01-09 17:45:00,
2013-01-09 12:55:00,67.1,57.4,30.21,ENE,69,0.0,1.0,71,0.00,,,0.00,0,Wunderground v.1.15,2013-01-09 17:55:00,
2013-01-09 13:00:00,67.6,57.1,30.21,ENE,69,0.0,0.0,69,0.00,,,0.00,0,Wunderground v.1.15,2013-01-09 18:00:00,
2013-01-09 13:10:00,68.7,57.7,30.21,NNE,31,2.0,2.0,68,0.00,,,0.00,0,Wunderground v.1.15,2013-01-09 18:10:00,
2013-01-09 13:20:00,69.0,58.0,30.21,NE,38,0.0,0.0,68,0.00,,,0.00,0,Wunderground v.1.15,2013-01-09 18:20:00,
2013-01-09 13:30:00,69.3,57.0,30.21,NNE,28,0.0,0.0,65,0.00,,,0.00,0,Wunderground v.1.15,2013-01-09 18:30:00,
2013-01-09 13:40:00,70.0,57.3,30.21,ENE,78,1.0,1.0,64,0.00,,,0.00,0,Wunderground v.1.15,2013-01-09 18:40:00,
2013-01-09 13:45:00,69.9,57.6,30.21,ENE,77,0.0,1.0,65,0.00,,,0.00,0,Wunderground v.1.15,2013-01-09 18:45:00,
2013-01-09 13:50:00,69.7,57.8,30.21,ENE,77,0.0,0.0,66,0.00,,,0.00,0,Wunderground v.1.15,2013-01-09 18:50:00,
2013-01-09 13:55:00,69.7,57.8,30.21,North,6,0.0,0.0,66,0.00,,,0.00,0,Wunderground v.1.15,2013-01-09 18:55:00,
2013-01-09 14:00:00,69.6,57.7,30.21,North,6,0.0,0.0,66,0.00,,,0.00,0,Wunderground v.1.15,2013-01-09 19:00:00,
2013-01-09 14:10:00,69.9,57.2,30.21,North,6,0.0,0.0,64,0.00,,,0.00,0,Wunderground v.1.15,2013-01-09 19:10:00,
2013-01-09 14:20:00,70.2,56.6,30.21,NE,37,2.0,2.0,62,0.00,,,0.00,0,Wunderground v.1.15,2013-01-09 19:20:00,
2013-01-09 14:30:00,70.1,56.9,30.21,NE,44,0.0,0.0,63,0.00,,,0.00,0,Wunderground v.1.15,2013-01-09 19:30:00,
2013-01-09 14:40:00,69.6,56.4,30.21,NNE,22,1.0,1.0,63,0.00,,,0.00,0,Wunderground v.1.15,2013-01-09 19:40:00,
2013-01-09 14:50:00,69.3,55.7,30.21,North,6,0.0,0.0,62,0.00,,,0.00,0,Wunderground v.1.15,2013-01-09 19:50:00,
2013-01-09 14:55:00,69.3,56.2,30.21,ENE,72,0.0,0.0,63,0.00,,,0.00,0,Wunderground v.1.15,2013-01-09 19:55:00,
2013-01-09 15:00:00,68.1,57.5,30.35,NNW,337,0.0,2.0,69,0.00,,,-99.99,,WeatherLink 5.9.2,2013-01-09 20:00:00,
2013-01-09 15:05:00,69.7,56.5,30.21,ENE,62,0.0,0.0,63,0.00,,,0.00,0,Wunderground v.1.15,2013-01-09 20:05:00,
2013-01-09 15:15:00,70.1,56.9,30.21,NE,54,0.0,0.0,63,0.00,,,0.00,0,Wunderground v.1.15,2013-01-09 20:15:00,
2013-01-09 15:20:00,69.9,56.7,30.20,NE,54,0.0,0.0,63,0.00,,,0.00,0,Wunderground v.1.15,2013-01-09 20:20:00,
2013-01-09 15:30:00,65.9,57.4,30.36,North,-999,0.0,0.0,74,0.00,,,-99.99,,WeatherLink 5.9.2,2013-01-09 20:30:00,
2013-01-09 15:35:00,69.1,56.8,30.21,NNW,338,0.0,0.0,65,0.00,,,0.00,0,Wunderground v.1.15,2013-01-09 20:35:00,
2013-01-09 15:40:00,68.8,57.0,30.21,NNW,338,0.0,0.0,66,0.00,,,0.00,0,Wunderground v.1.15,2013-01-09 20:40:00,
2013-01-09 15:50:00,68.0,56.6,30.21,NNW,338,0.0,0.0,67,0.00,,,0.00,0,Wunderground v.1.15,2013-01-09 20:50:00,
2013-01-09 15:55:00,67.8,56.4,30.21,NNW,338,0.0,0.0,67,0.00,,,0.00,0,Wunderground v.1.15,2013-01-09 20:55:00,
2013-01-09 16:00:00,63.7,57.8,30.37,North,-999,0.0,0.0,81,0.00,,,-99.99,,WeatherLink 5.9.2,2013-01-09 21:00:00,
2013-01-09 16:05:00,67.0,56.5,30.21,NNW,338,0.0,0.0,69,0.00,,,0.00,0,Wunderground v.1.15,2013-01-09 21:05:00,
2013-01-09 16:10:00,66.7,57.4,30.22,NNW,338,0.0,0.0,72,0.00,,,0.00,0,Wunderground v.1.15,2013-01-09 21:10:00,
2013-01-09 16:20:00,65.8,56.9,30.22,NNW,338,0.0,0.0,73,0.00,,,0.00,0,Wunderground v.1.15,2013-01-09 21:20:00,
2013-01-09 16:30:00,65.1,56.6,30.22,NNW,338,0.0,0.0,74,0.00,,,0.00,0,Wunderground v.1.15,2013-01-09 21:30:00,
2013-01-09 16:35:00,64.6,56.1,30.22,NNW,338,0.0,0.0,74,0.00,,,0.00,0,Wunderground v.1.15,2013-01-09 21:35:00,
2013-01-09 16:40:00,64.4,56.3,30.22,NNW,338,0.0,0.0,75,0.00,,,0.00,0,Wunderground v.1.15,2013-01-09 21:40:00,
2013-01-09 16:50:00,63.6,56.6,30.22,NNW,338,0.0,0.0,78,0.00,,,0.00,0,Wunderground v.1.15,2013-01-09 21:50:00,
2013-01-09 16:55:00,63.3,56.7,30.23,NNW,338,0.0,0.0,79,0.00,,,0.00,0,Wunderground v.1.15,2013-01-09 21:55:00,
2013-01-09 17:00:00,60.0,55.2,30.38,North,-999,0.0,0.0,84,0.00,,,-99.99,,WeatherLink 5.9.2,2013-01-09 22:00:00,
2013-01-09 17:05:00,62.6,56.3,30.23,NNW,338,0.0,0.0,80,0.00,,,0.00,0,Wunderground v.1.15,2013-01-09 22:05:00,
2013-01-09 17:10:00,62.4,56.5,30.23,NNW,338,0.0,0.0,81,0.00,,,0.00,0,Wunderground v.1.15,2013-01-09 22:10:00,
2013-01-09 17:20:00,61.7,56.1,30.23,NNW,338,0.0,0.0,82,0.00,,,0.00,0,Wunderground v.1.15,2013-01-09 22:20:00,
2013-01-09 17:30:00,61.0,56.1,30.24,NNW,338,0.0,0.0,84,0.00,,,0.00,0,Wunderground v.1.15,2013-01-09 22:30:00,
2013-01-09 17:40:00,60.4,55.5,30.24,NNW,338,0.0,0.0,84,0.00,,,0.00,0,Wunderground v.1.15,2013-01-09 22:40:00,
2013-01-09 17:50:00,60.0,55.5,30.24,NNW,338,0.0,0.0,85,0.00,,,0.00,0,Wunderground v.1.15,2013-01-09 22:50:00,
2013-01-09 18:00:00,59.5,54.7,30.24,NNW,338,0.0,0.0,84,0.00,,,0.00,0,Wunderground v.1.15,2013-01-09 23:00:00,
2013-01-09 18:05:00,59.4,54.6,30.24,NNW,338,0.0,0.0,84,0.00,,,0.00,0,Wunderground v.1.15,2013-01-09 23:05:00,
2013-01-09 18:10:00,59.2,54.4,30.24,NNW,338,0.0,0.0,84,0.00,,,0.00,0,Wunderground v.1.15,2013-01-09 23:10:00,
2013-01-09 18:20:00,58.9,54.1,30.24,NNW,338,0.0,0.0,84,0.00,,,0.00,0,Wunderground v.1.15,2013-01-09 23:20:00,
2013-01-09 18:25:00,58.7,54.2,30.23,NNW,339,0.0,0.0,85,0.00,,,0.00,0,Wunderground v.1.15,2013-01-09 23:25:00,
2013-01-09 18:30:00,57.7,54.2,30.38,North,-999,0.0,0.0,88,0.00,,,-99.99,,WeatherLink 5.9.2,2013-01-09 23:30:00,
2013-01-09 18:35:00,58.4,53.9,30.23,NNW,339,0.0,0.0,85,0.00,,,0.00,0,Wunderground v.1.15,2013-01-09 23:35:00,
2013-01-09 18:40:00,58.4,54.2,30.24,NNW,338,0.0,0.0,86,0.00,,,0.00,0,Wunderground v.1.15,2013-01-09 23:40:00,
2013-01-09 18:50:00,58.1,53.9,30.24,NNW,339,0.0,0.0,86,0.00,,,0.00,0,Wunderground v.1.15,2013-01-09 23:50:00,
2013-01-09 19:00:00,57.9,54.1,30.24,NNW,339,0.0,0.0,87,0.00,,,0.00,0,Wunderground v.1.15,2013-01-10 00:00:00,
2013-01-09 19:05:00,57.8,54.0,30.24,NNW,339,0.0,0.0,87,0.00,,,0.00,0,Wunderground v.1.15,2013-01-10 00:05:00,
2013-01-09 19:15:00,57.7,54.2,30.24,NNW,339,0.0,0.0,88,0.00,,,0.00,0,Wunderground v.1.15,2013-01-10 00:15:00,
2013-01-09 19:25:00,57.6,54.1,30.24,NNW,339,0.0,0.0,88,0.00,,,0.00,0,Wunderground v.1.15,2013-01-10 00:25:00,
2013-01-09 19:30:00,57.5,54.0,30.24,NNW,339,0.0,0.0,88,0.00,,,0.00,0,Wunderground v.1.15,2013-01-10 00:30:00,
2013-01-09 19:40:00,57.3,53.8,30.24,NNW,339,0.0,0.0,88,0.00,,,0.00,0,Wunderground v.1.15,2013-01-10 00:40:00,
2013-01-09 19:50:00,57.1,53.9,30.24,NNW,339,0.0,0.0,89,0.00,,,0.00,0,Wunderground v.1.15,2013-01-10 00:50:00,
2013-01-09 20:00:00,56.9,53.7,30.23,NNW,339,0.0,0.0,89,0.00,,,0.00,0,Wunderground v.1.15,2013-01-10 01:00:00,
2013-01-09 20:10:00,56.7,53.8,30.23,NNW,339,0.0,0.0,90,0.00,,,0.00,0,Wunderground v.1.15,2013-01-10 01:10:00,
2013-01-09 20:20:00,56.5,53.6,30.22,NNW,339,0.0,0.0,90,0.00,,,0.00,0,Wunderground v.1.15,2013-01-10 01:20:00,
2013-01-09 20:30:00,56.2,53.6,30.22,NNW,339,0.0,0.0,91,0.00,,,0.00,0,Wunderground v.1.15,2013-01-10 01:30:00,
2013-01-09 20:35:00,56.1,53.5,30.22,NNW,339,0.0,0.0,91,0.00,,,0.00,0,Wunderground v.1.15,2013-01-10 01:35:00,
2013-01-09 20:45:00,56.1,53.5,30.21,NNW,339,0.0,0.0,91,0.00,,,0.00,0,Wunderground v.1.15,2013-01-10 01:45:00,
2013-01-09 20:55:00,55.9,53.3,30.21,NNW,339,0.0,0.0,91,0.00,,,0.00,0,Wunderground v.1.15,2013-01-10 01:55:00,
2013-01-09 21:00:00,55.8,53.2,30.21,NNW,339,0.0,0.0,91,0.00,,,0.00,0,Wunderground v.1.15,2013-01-10 02:00:00,
2013-01-09 21:10:00,55.8,53.2,30.21,NNW,339,0.0,0.0,91,0.00,,,0.00,0,Wunderground v.1.15,2013-01-10 02:10:00,
2013-01-09 21:20:00,55.6,53.3,30.21,NNW,339,0.0,0.0,92,0.00,,,0.00,0,Wunderground v.1.15,2013-01-10 02:20:00,
2013-01-09 21:30:00,55.4,53.1,30.21,NNW,339,0.0,0.0,92,0.00,,,0.00,0,Wunderground v.1.15,2013-01-10 02:30:00,
2013-01-09 21:40:00,55.2,52.9,30.21,NNW,339,0.0,0.0,92,0.00,,,0.00,0,Wunderground v.1.15,2013-01-10 02:40:00,
2013-01-09 21:50:00,54.8,52.5,30.21,NNW,339,0.0,0.0,92,0.00,,,0.00,0,Wunderground v.1.15,2013-01-10 02:50:00,
2013-01-09 22:00:00,54.5,52.5,30.22,NNW,339,0.0,0.0,93,0.00,,,0.00,0,Wunderground v.1.15,2013-01-10 03:00:00,
2013-01-09 22:10:00,54.2,52.2,30.23,NNW,339,0.0,0.0,93,0.00,,,0.00,0,Wunderground v.1.15,2013-01-10 03:10:00,
2013-01-09 22:20:00,54.0,52.0,30.23,NNW,339,0.0,0.0,93,0.00,,,0.00,0,Wunderground v.1.15,2013-01-10 03:20:00,
2013-01-09 22:30:00,53.4,51.4,30.23,NNW,339,0.0,0.0,93,0.00,,,0.00,0,Wunderground v.1.15,2013-01-10 03:30:00,
2013-01-09 22:40:00,53.0,51.9,30.24,NNW,339,0.0,0.0,96,0.00,,,0.00,0,Wunderground v.1.15,2013-01-10 03:40:00,
2013-01-09 22:50:00,52.4,51.0,30.24,NNW,339,0.0,0.0,95,0.00,,,0.00,0,Wunderground v.1.15,2013-01-10 03:50:00,
2013-01-09 22:55:00,52.1,49.8,30.24,NNW,339,0.0,0.0,92,0.00,,,0.00,0,Wunderground v.1.15,2013-01-10 03:55:00,
2013-01-09 23:00:00,51.2,49.2,30.40,North,-999,0.0,0.0,93,0.00,,,-99.99,,WeatherLink 5.9.2,2013-01-10 04:00:00,
2013-01-09 23:05:00,51.7,49.7,30.24,NNW,339,0.0,0.0,93,0.00,,,0.00,0,Wunderground v.1.15,2013-01-10 04:05:00,
2013-01-09 23:10:00,51.6,49.4,30.24,NNW,339,0.0,0.0,92,0.00,,,0.00,0,Wunderground v.1.15,2013-01-10 04:10:00,
2013-01-09 23:20:00,51.4,49.2,30.24,NNW,339,0.0,0.0,92,0.00,,,0.00,0,Wunderground v.1.15,2013-01-10 04:20:00,
2013-01-09 23:25:00,51.3,49.1,30.24,NNW,339,0.0,0.0,92,0.00,,,0.00,0,Wunderground v.1.15,2013-01-10 04:25:00,
2013-01-09 23:30:00,50.5,48.6,30.40,North,-999,0.0,0.0,93,0.00,,,-99.99,,WeatherLink 5.9.2,2013-01-10 04:30:00,
2013-01-09 23:35:00,51.3,49.3,30.24,NNW,339,0.0,0.0,93,0.00,,,0.00,0,Wunderground v.1.15,2013-01-10 04:35:00,
2013-01-09 23:40:00,51.4,49.4,30.24,NNW,339,0.0,0.0,93,0.00,,,0.00,0,Wunderground v.1.15,2013-01-10 04:40:00,
2013-01-09 23:50:00,51.3,49.3,30.24,NNW,339,0.0,0.0,93,0.00,,,0.00,0,Wunderground v.1.15,2013-01-10 04:50:00,